createdAt,value
2019-01-05T00:00:05.411Z,98.91
2019-01-05T00:02:54.847Z,98.71
2019-01-05T00:05:59.112Z,98.60
2019-01-05T00:08:43.680Z,98.76
2019-01-05T00:11:31.494Z,98.80
2019-01-05T00:14:39.133Z,98.64
2019-01-05T00:17:37.825Z,98.65
2019-01-05T00:20:22.121Z,98.97
2019-01-05T00:23:31.557Z,98.86
2019-01-05T00:26:21.017Z,99.07
2019-01-05T00:29:09.261Z,98.80
2019-01-05T00:32:06.123Z,98.71
2019-01-05T00:35:06.190Z,98.68
2019-01-05T00:37:57.770Z,98.78
2019-01-05T00:40:53.089Z,98.61
2019-01-05T00:43:51.992Z,98.77
2019-01-05T00:46:41.002Z,98.77
2019-01-05T00:49:43.532Z,99.01
2019-01-05T00:52:36.748Z,98.99
2019-01-05T00:55:25.049Z,99.15
2019-01-05T00:58:27.029Z,98.92
2019-01-05T01:01:15.372Z,98.89
2019-01-05T01:04:01.868Z,99.01
2019-01-05T01:06:49.904Z,99.16
2019-01-05T01:09:48.221Z,99.13
2019-01-05T01:12:37.766Z,98.94
2019-01-05T01:15:25.899Z,98.93
2019-01-05T01:18:30.732Z,98.73
2019-01-05T01:21:23.373Z,98.78
2019-01-05T01:24:16.093Z,98.72
2019-01-05T01:26:58.642Z,98.53
2019-01-05T01:29:57.691Z,98.28
2019-01-05T01:32:47.096Z,98.24
2019-01-05T01:35:54.665Z,98.14
2019-01-05T01:39:05.709Z,98.00
2019-01-05T01:41:58.360Z,98.14
2019-01-05T01:44:46.548Z,98.04
2019-01-05T01:47:39.845Z,98.12
2019-01-05T01:50:28.125Z,98.29
2019-01-05T01:53:18.123Z,98.19
2019-01-05T01:56:17.667Z,98.52
2019-01-05T01:59:07.540Z,98.33
2019-01-05T02:02:04.736Z,98.50
2019-01-05T02:04:52.822Z,98.51
2019-01-05T02:07:44.115Z,98.67
2019-01-05T02:10:46.477Z,98.44
2019-01-05T02:13:44.651Z,98.40
2019-01-05T02:16:35.568Z,98.26
2019-01-05T02:19:39.366Z,98.31
2019-01-05T02:22:59.989Z,98.20
2019-01-05T02:26:40.871Z,97.85
2019-01-05T02:30:01.251Z,97.84
2019-01-05T02:33:45.916Z,98.05
2019-01-05T02:37:07.568Z,97.80
2019-01-05T02:40:54.875Z,98.09
2019-01-05T02:44:17.613Z,98.50
2019-01-05T02:48:04.516Z,98.64
2019-01-05T02:51:25.771Z,98.65
2019-01-05T02:54:49.192Z,98.96
2019-01-05T02:58:13.622Z,99.04
2019-01-05T03:01:43.410Z,98.96
2019-01-05T03:05:12.739Z,99.02
2019-01-05T03:08:54.926Z,99.02
2019-01-05T03:12:26.799Z,98.81
2019-01-05T03:15:49.886Z,98.83
2019-01-05T03:19:22.758Z,99.03
2019-01-05T03:22:58.504Z,99.02
2019-01-05T03:26:42.842Z,98.87
2019-01-05T03:30:25.792Z,98.78
2019-01-05T03:34:08.417Z,98.89
2019-01-05T03:37:56.264Z,98.93
2019-01-05T03:41:36.595Z,98.83
2019-01-05T03:45:16.611Z,99.04
2019-01-05T03:49:19.835Z,99.23
2019-01-05T03:52:53.326Z,99.40
2019-01-05T03:56:47.072Z,99.58
2019-01-05T04:00:08.937Z,99.65
2019-01-05T04:03:32.553Z,99.69
2019-01-05T04:07:07.454Z,99.86
2019-01-05T04:10:33.493Z,99.83
2019-01-05T04:14:11.095Z,100.00
2019-01-05T04:17:50.382Z,99.97
2019-01-05T04:21:21.671Z,100.00
2019-01-05T04:24:30.545Z,100.00
2019-01-05T04:27:52.711Z,99.98
2019-01-05T04:31:36.794Z,100.00
2019-01-05T04:35:11.940Z,100.00
2019-01-05T04:38:36.102Z,100.00
2019-01-05T04:42:23.780Z,100.00
2019-01-05T04:46:08.376Z,100.00
2019-01-05T04:49:28.490Z,100.00
2019-01-05T04:52:43.004Z,100.00
2019-01-05T04:56:24.034Z,100.00
2019-01-05T04:59:56.446Z,100.00
2019-01-05T05:03:23.974Z,100.00
2019-01-05T05:07:03.847Z,100.00
2019-01-05T05:10:51.901Z,100.00
2019-01-05T05:14:30.833Z,100.00
2019-01-05T05:18:02.957Z,100.00
2019-01-05T05:21:28.910Z,100.00
2019-01-05T05:24:59.386Z,100.00
2019-01-05T05:28:51.690Z,100.00
2019-01-05T05:32:19.381Z,100.00
2019-01-05T05:35:36.458Z,100.00
2019-01-05T05:39:20.327Z,100.00
2019-01-05T05:43:02.450Z,100.00
2019-01-05T05:46:46.264Z,100.00
2019-01-05T05:50:16.434Z,100.00
2019-01-05T05:53:52.213Z,100.00
2019-01-05T05:57:35.950Z,100.00
2019-01-05T06:01:30.217Z,100.00
2019-01-05T06:05:16.994Z,100.00
2019-01-05T06:08:33.163Z,100.00
2019-01-05T06:12:13.397Z,100.00
2019-01-05T06:16:10.918Z,100.00
2019-01-05T06:19:47.441Z,100.00
2019-01-05T06:23:21.612Z,100.00
2019-01-05T06:26:54.295Z,100.00
2019-01-05T06:30:01.918Z,100.00
2019-01-05T06:33:38.272Z,100.00
2019-01-05T06:37:44.719Z,100.00
2019-01-05T06:41:11.230Z,100.00
2019-01-05T06:44:43.877Z,100.00
2019-01-05T06:48:40.078Z,100.00
2019-01-05T06:52:17.739Z,100.00
2019-01-05T06:55:35.474Z,100.00
2019-01-05T06:59:06.189Z,100.00
2019-01-05T07:02:54.731Z,100.00
2019-01-05T07:06:31.308Z,100.00
2019-01-05T07:09:56.328Z,100.00
2019-01-05T07:13:17.510Z,100.00
2019-01-05T07:16:55.430Z,100.00
2019-01-05T07:20:29.002Z,100.00
2019-01-05T07:23:45.841Z,100.00
2019-01-05T07:27:13.516Z,100.00
2019-01-05T07:30:44.407Z,100.00
2019-01-05T07:34:17.459Z,100.00
2019-01-05T07:37:47.210Z,100.00
2019-01-05T07:41:43.510Z,100.00
2019-01-05T07:45:30.754Z,100.00
2019-01-05T07:48:55.357Z,100.00
2019-01-05T07:52:18.477Z,100.00
2019-01-05T07:55:33.598Z,100.00
2019-01-05T07:58:58.957Z,100.00
2019-01-05T08:02:42.868Z,100.00
2019-01-05T08:06:04.383Z,100.00
2019-01-05T08:09:54.361Z,100.00
2019-01-05T08:13:37.497Z,100.00
2019-01-05T08:17:22.482Z,100.00
2019-01-05T08:20:47.297Z,100.00
2019-01-05T08:24:10.067Z,100.00
2019-01-05T08:27:39.921Z,100.00
2019-01-05T08:31:12.883Z,100.00
2019-01-05T08:34:43.331Z,100.00
2019-01-05T08:38:23.898Z,100.00
2019-01-05T08:41:44.944Z,100.00
2019-01-05T08:45:19.923Z,100.00
2019-01-05T08:49:09.687Z,100.00
2019-01-05T08:52:19.075Z,100.00
2019-01-05T08:56:14.481Z,100.00
2019-01-05T08:59:34.799Z,100.00
2019-01-05T09:03:36.837Z,100.00
2019-01-05T09:07:18.849Z,100.00
2019-01-05T09:10:59.723Z,100.00
2019-01-05T09:14:40.928Z,100.00
2019-01-05T09:17:56.453Z,100.00
2019-01-05T09:21:31.028Z,100.00
2019-01-05T09:25:11.729Z,100.00
2019-01-05T09:28:38.937Z,99.98
2019-01-05T09:32:04.699Z,99.82
2019-01-05T09:35:34.977Z,99.76
2019-01-05T09:38:58.405Z,99.79
2019-01-05T09:42:35.956Z,99.84
2019-01-05T09:46:00.149Z,99.55
2019-01-05T09:49:37.749Z,99.85
2019-01-05T09:53:18.309Z,99.96
2019-01-05T09:57:18.765Z,99.98
2019-01-05T10:00:56.634Z,99.98
2019-01-05T10:04:43.077Z,100.00
2019-01-05T10:08:38.916Z,100.00
2019-01-05T10:12:18.919Z,100.00
2019-01-05T10:15:42.961Z,100.00
2019-01-05T10:18:54.758Z,99.92
2019-01-05T10:22:15.609Z,99.84
2019-01-05T10:25:49.060Z,100.00
2019-01-05T10:29:14.698Z,100.00
2019-01-05T10:32:44.932Z,99.69
2019-01-05T10:36:11.332Z,99.93
2019-01-05T10:39:36.352Z,99.22
2019-01-05T10:43:17.496Z,98.70
2019-01-05T10:46:50.778Z,99.07
2019-01-05T10:50:37.069Z,98.48
2019-01-05T10:54:13.377Z,98.18
2019-01-05T10:57:51.418Z,98.57
2019-01-05T11:01:31.730Z,98.80
2019-01-05T11:04:57.198Z,98.85
2019-01-05T11:08:46.709Z,98.72
2019-01-05T11:12:34.447Z,98.35
2019-01-05T11:16:21.087Z,98.44
2019-01-05T11:19:57.892Z,98.49
2019-01-05T11:23:29.150Z,98.34
2019-01-05T11:26:56.375Z,98.67
2019-01-05T11:30:43.483Z,98.51
2019-01-05T11:34:26.157Z,98.54
2019-01-05T11:38:07.132Z,98.61
2019-01-05T11:41:40.448Z,98.54
2019-01-05T11:45:13.157Z,98.66
2019-01-05T11:48:34.813Z,98.38
2019-01-05T11:52:01.352Z,98.44
2019-01-05T11:55:28.489Z,98.19
2019-01-05T11:58:57.310Z,97.96
2019-01-05T12:02:28.734Z,98.21
2019-01-05T12:05:44.841Z,98.21
2019-01-05T12:09:34.547Z,97.45
2019-01-05T12:13:22.840Z,97.50
2019-01-05T12:16:40.921Z,96.80
2019-01-05T12:20:12.953Z,96.80
2019-01-05T12:23:45.222Z,97.19
2019-01-05T12:27:18.398Z,96.72
2019-01-05T12:30:41.577Z,96.70
2019-01-05T12:34:16.658Z,96.66
2019-01-05T12:37:52.198Z,96.75
2019-01-05T12:41:26.416Z,96.24
2019-01-05T12:44:57.031Z,96.51
2019-01-05T12:48:45.314Z,95.73
2019-01-05T12:52:09.692Z,96.72
2019-01-05T12:55:32.954Z,96.28
2019-01-05T12:59:02.703Z,96.07
2019-01-05T13:02:25.897Z,96.55
2019-01-05T13:06:11.599Z,96.27
2019-01-05T13:09:46.565Z,96.75
2019-01-05T13:13:23.035Z,96.84
2019-01-05T13:16:59.378Z,96.75
2019-01-05T13:20:31.336Z,96.75
2019-01-05T13:24:03.499Z,96.76
2019-01-05T13:27:31.611Z,96.59
2019-01-05T13:30:55.497Z,97.04
2019-01-05T13:34:46.084Z,96.31
2019-01-05T13:38:15.555Z,96.67
2019-01-05T13:41:40.145Z,96.33
2019-01-05T13:45:06.629Z,96.81
2019-01-05T13:48:34.703Z,97.08
2019-01-05T13:51:47.378Z,97.19
2019-01-05T13:54:38.071Z,97.04
2019-01-05T13:57:29.737Z,96.60
2019-01-05T14:00:28.041Z,97.01
2019-01-05T14:03:29.288Z,96.48
2019-01-05T14:06:33.876Z,96.59
2019-01-05T14:09:30.637Z,96.56
2019-01-05T14:12:15.283Z,96.46
2019-01-05T14:15:10.549Z,96.61
2019-01-05T14:17:58.345Z,96.87
2019-01-05T14:21:06.002Z,96.95
2019-01-05T14:24:10.929Z,96.86
2019-01-05T14:26:58.490Z,96.93
2019-01-05T14:29:46.597Z,96.77
2019-01-05T14:32:36.504Z,96.82
2019-01-05T14:35:24.725Z,96.69
2019-01-05T14:38:19.920Z,96.87
2019-01-05T14:41:09.328Z,97.03
2019-01-05T14:44:01.503Z,96.69
2019-01-05T14:46:50.130Z,96.82
2019-01-05T14:49:51.106Z,96.79
2019-01-05T14:52:43.404Z,96.83
2019-01-05T14:55:31.537Z,96.51
2019-01-05T14:58:27.440Z,96.66
2019-01-05T15:01:31.977Z,96.65
2019-01-05T15:04:20.184Z,96.87
2019-01-05T15:07:27.526Z,96.93
2019-01-05T15:10:23.067Z,97.07
2019-01-05T15:13:12.357Z,97.06
2019-01-05T15:16:05.551Z,97.06
2019-01-05T15:18:53.670Z,96.74
2019-01-05T15:21:41.728Z,96.71
2019-01-05T15:24:31.136Z,96.88
2019-01-05T15:27:29.976Z,96.60
2019-01-05T15:30:30.140Z,96.91
2019-01-05T15:33:34.802Z,96.74
2019-01-05T15:36:30.042Z,96.85
2019-01-05T15:39:37.705Z,96.96
2019-01-05T15:42:26.000Z,96.96
2019-01-05T15:45:15.417Z,97.18
2019-01-05T15:48:20.112Z,96.72
2019-01-05T15:51:17.929Z,97.01
2019-01-05T15:54:06.030Z,96.62
2019-01-05T15:57:08.005Z,96.69
2019-01-05T15:59:56.297Z,96.76
2019-01-05T16:02:50.087Z,96.63
2019-01-05T16:05:45.219Z,96.47
2019-01-05T16:08:53.175Z,96.35
2019-01-05T16:11:52.170Z,96.23
2019-01-05T16:14:40.377Z,96.28
2019-01-05T16:17:47.787Z,96.36
2019-01-05T16:20:35.703Z,96.28
2019-01-05T16:23:40.498Z,96.41
2019-01-05T16:26:35.426Z,96.41
2019-01-05T16:29:28.518Z,96.76
2019-01-05T16:32:22.138Z,96.81
2019-01-05T16:35:20.787Z,96.49
2019-01-05T16:38:12.963Z,96.62
2019-01-05T16:41:00.734Z,96.94
2019-01-05T16:43:59.757Z,96.94
2019-01-05T16:46:48.123Z,96.64
2019-01-05T16:49:40.811Z,96.84
2019-01-05T16:52:35.967Z,96.66
2019-01-05T16:55:23.817Z,97.13
2019-01-05T16:58:28.170Z,97.04
2019-01-05T17:01:32.516Z,97.07
2019-01-05T17:04:30.736Z,97.03
2019-01-05T17:07:18.757Z,96.71
2019-01-05T17:10:11.381Z,96.90
2019-01-05T17:13:06.289Z,96.91
2019-01-05T17:16:04.712Z,96.77
2019-01-05T17:18:54.110Z,96.74
2019-01-05T17:21:49.288Z,96.57
2019-01-05T17:24:53.757Z,96.87
2019-01-05T17:27:46.007Z,96.89
2019-01-05T17:30:34.064Z,96.87
2019-01-05T17:33:21.898Z,96.89
2019-01-05T17:36:24.024Z,96.60
2019-01-05T17:39:14.064Z,96.35
2019-01-05T17:42:06.512Z,96.90
2019-01-05T17:45:04.854Z,96.83
2019-01-05T17:47:52.981Z,96.83
2019-01-05T17:50:40.743Z,96.81
2019-01-05T17:53:35.548Z,96.88
2019-01-05T17:56:29.036Z,97.05
2019-01-05T17:59:24.370Z,96.96
2019-01-05T18:02:12.604Z,97.08
2019-01-05T18:05:00.677Z,96.90
2019-01-05T18:07:52.858Z,96.27
2019-01-05T18:10:41.107Z,96.18
2019-01-05T18:13:33.830Z,96.25
2019-01-05T18:16:21.906Z,96.38
2019-01-05T18:19:10.201Z,96.25
2019-01-05T18:22:08.573Z,96.69
2019-01-05T18:24:56.636Z,96.46
2019-01-05T18:27:44.632Z,96.03
2019-01-05T18:30:34.653Z,95.98
2019-01-05T18:33:33.399Z,95.92
2019-01-05T18:36:28.938Z,95.80
2019-01-05T18:39:27.782Z,95.88
2019-01-05T18:42:32.039Z,96.06
2019-01-05T18:45:28.024Z,96.32
2019-01-05T18:48:17.767Z,96.45
2019-01-05T18:51:13.979Z,96.02
2019-01-05T18:54:18.480Z,95.69
2019-01-05T18:57:20.222Z,95.70
2019-01-05T19:00:18.827Z,95.87
2019-01-05T19:03:06.835Z,95.81
2019-01-05T19:06:02.069Z,96.08
2019-01-05T19:08:50.690Z,96.10
2019-01-05T19:11:55.235Z,95.38
2019-01-05T19:14:45.004Z,96.10
2019-01-05T19:17:46.720Z,96.21
2019-01-05T19:20:36.166Z,96.58
2019-01-05T19:23:34.489Z,96.42
2019-01-05T19:26:39.474Z,96.07
2019-01-05T19:29:43.984Z,96.29
2019-01-05T19:32:48.633Z,96.18
2019-01-05T19:35:38.013Z,95.77
2019-01-05T19:38:26.336Z,96.08
2019-01-05T19:41:27.885Z,96.21
2019-01-05T19:44:31.974Z,96.09
2019-01-05T19:47:20.046Z,96.19
2019-01-05T19:50:08.419Z,96.01
2019-01-05T19:53:16.367Z,96.12
2019-01-05T19:56:04.192Z,96.11
2019-01-05T19:59:02.613Z,96.57
2019-01-05T20:01:49.778Z,95.86
2019-01-05T20:04:42.160Z,96.11
2019-01-05T20:07:46.561Z,96.21
2019-01-05T20:10:34.824Z,96.10
2019-01-05T20:13:24.261Z,95.77
2019-01-05T20:16:22.703Z,95.82
2019-01-05T20:19:23.504Z,96.00
2019-01-05T20:22:23.184Z,95.84
2019-01-05T20:25:27.691Z,96.21
2019-01-05T20:28:35.656Z,96.33
2019-01-05T20:31:37.034Z,96.32
2019-01-05T20:34:24.840Z,96.25
2019-01-05T20:37:13.281Z,96.14
2019-01-05T20:39:53.934Z,96.34
2019-01-05T20:42:49.756Z,96.49
2019-01-05T20:45:37.596Z,96.61
2019-01-05T20:48:23.972Z,96.32
2019-01-05T20:51:22.498Z,96.23
2019-01-05T20:54:30.166Z,95.98
2019-01-05T20:57:25.628Z,95.32
2019-01-05T21:00:13.637Z,95.50
2019-01-05T21:03:01.669Z,95.54
2019-01-05T21:06:07.036Z,95.44
2019-01-05T21:08:55.204Z,95.45
2019-01-05T21:11:44.634Z,95.42
2019-01-05T21:14:49.458Z,95.51
2019-01-05T21:17:37.531Z,95.41
2019-01-05T21:20:45.031Z,95.17
2019-01-05T21:23:33.878Z,95.27
2019-01-05T21:26:24.654Z,95.26
2019-01-05T21:29:11.996Z,95.46
2019-01-05T21:32:07.897Z,95.53
2019-01-05T21:35:03.231Z,95.61
2019-01-05T21:37:55.369Z,95.83
2019-01-05T21:40:56.650Z,95.99
2019-01-05T21:44:01.646Z,95.92
2019-01-05T21:46:58.986Z,96.16
2019-01-05T21:49:54.319Z,96.26
2019-01-05T21:52:46.808Z,96.42
2019-01-05T21:55:34.834Z,96.63
2019-01-05T21:58:27.700Z,96.65
2019-01-05T22:01:15.522Z,96.51
2019-01-05T22:04:03.615Z,97.01
2019-01-05T22:07:02.152Z,96.84
2019-01-05T22:09:47.775Z,96.98
2019-01-05T22:12:37.176Z,96.87
2019-01-05T22:15:26.615Z,97.26
2019-01-05T22:18:14.591Z,97.28
2019-01-05T22:21:02.733Z,97.01
2019-01-05T22:23:55.155Z,97.10
2019-01-05T22:26:43.303Z,97.00
2019-01-05T22:29:31.730Z,96.39
2019-01-05T22:32:17.010Z,96.45
2019-01-05T22:35:09.343Z,96.44
2019-01-05T22:38:01.599Z,96.60
2019-01-05T22:40:49.508Z,96.68
2019-01-05T22:43:56.896Z,96.43
2019-01-05T22:46:55.642Z,96.50
2019-01-05T22:49:51.024Z,96.63
2019-01-05T22:52:55.539Z,96.80
2019-01-05T22:55:47.097Z,96.61
2019-01-05T22:58:45.971Z,96.41
2019-01-05T23:01:38.766Z,96.13
2019-01-05T23:04:20.837Z,96.11
2019-01-05T23:07:06.620Z,96.22
2019-01-05T23:09:59.028Z,96.29
2019-01-05T23:12:47.734Z,96.58
2019-01-05T23:15:38.138Z,96.68
2019-01-05T23:18:36.891Z,96.71
2019-01-05T23:21:25.095Z,96.49
2019-01-05T23:24:14.741Z,96.65
2019-01-05T23:27:04.166Z,96.38
2019-01-05T23:29:53.402Z,96.59
2019-01-05T23:32:52.202Z,96.35
2019-01-05T23:35:40.318Z,96.58
2019-01-05T23:38:28.140Z,97.16
2019-01-05T23:41:26.438Z,96.97
2019-01-05T23:44:31.065Z,97.25
2019-01-05T23:47:20.493Z,97.17
2019-01-05T23:50:08.939Z,96.76
2019-01-05T23:52:58.837Z,96.35
2019-01-05T23:55:57.174Z,96.73
2019-01-05T23:58:46.093Z,96.30
